Time;durP1;ratioP1;P1;durP2;ratioP2;P2;SDS_P1;SDS_P2;PMS_P1;PMS_P2;Temp;Humidity;BMP_temperature;BMP_pressure;BME280_temperature;BME280_humidity;BME280_pressure;Samples;Min_cycle;Max_cycle;Signal;HPM_P1;HPM_P2
2022/11/09 00:00:39;;;;;;;15.93;14.83;;;;;;;11.87;83.79;96391.78;4972453;28;20189;-74
2022/11/09 00:03:05;;;;;;;16.77;15.73;;;;;;;11.97;83.08;96394.50;4972979;28;20532;-75
2022/11/09 00:05:30;;;;;;;16.07;14.97;;;;;;;12.00;82.34;96383.50;4972287;28;20176;-74
2022/11/09 00:07:56;;;;;;;9.67;9.13;;;;;;;12.01;82.30;96388.53;4972753;28;20718;-74
2022/11/09 00:10:21;;;;;;;10.40;9.60;;;;;;;12.05;82.35;96397.50;4970869;28;20533;-74
2022/11/09 00:12:46;;;;;;;11.60;10.83;;;;;;;12.12;82.47;96386.00;4971973;28;20219;-74
2022/11/09 00:15:12;;;;;;;12.07;11.17;;;;;;;12.08;83.06;96391.75;4971392;28;20224;-74
2022/11/09 00:17:37;;;;;;;12.93;12.13;;;;;;;11.96;83.97;96388.47;4972357;28;20201;-74
2022/11/09 00:26:47;;;;;;;9.27;8.57;;;;;;;11.87;84.87;96378.63;5293895;23;21296;-75
2022/11/09 00:29:12;;;;;;;11.07;10.27;;;;;;;11.91;84.56;96380.53;4971766;28;20494;-75
2022/11/09 00:31:37;;;;;;;10.73;10.07;;;;;;;11.91;84.67;96377.91;4955192;28;20698;-74
2022/11/09 00:34:03;;;;;;;9.97;9.27;;;;;;;11.91;85.22;96377.91;4972334;28;20188;-73
2022/11/09 00:36:29;;;;;;;11.20;10.37;;;;;;;11.89;84.88;96377.34;4971623;28;20196;-73
2022/11/09 00:38:59;;;;;;;10.07;9.37;;;;;;;11.88;85.00;96382.81;4956140;28;20640;-73
2022/11/09 00:41:26;;;;;;;12.70;11.73;;;;;;;11.83;85.29;96388.03;4972426;28;20181;-74
2022/11/09 00:43:52;;;;;;;10.30;9.53;;;;;;;11.72;86.34;96381.03;4954299;28;20236;-74
2022/11/09 00:46:18;;;;;;;9.87;9.13;;;;;;;11.78;85.87;96378.25;4960049;28;20353;-74
2022/11/09 00:48:44;;;;;;;9.60;8.90;;;;;;;11.62;87.03;96382.50;4981869;28;20218;-74
2022/11/09 00:51:10;;;;;;;8.70;8.03;;;;;;;11.54;87.25;96369.78;4971968;28;20615;-74
2022/11/09 00:53:36;;;;;;;8.20;7.60;;;;;;;11.62;86.98;96368.56;4972174;28;20275;-74
2022/11/09 00:56:05;;;;;;;7.77;7.23;;;;;;;11.65;87.30;96368.06;4972255;28;20247;-74
2022/11/09 00:58:33;;;;;;;7.83;7.33;;;;;;;11.57;87.82;96368.50;4979615;28;20266;-74
2022/11/09 01:01:04;;;;;;;7.27;6.57;;;;;;;11.57;88.27;96376.38;4989269;28;20299;-72
2022/11/09 01:03:30;;;;;;;6.40;6.00;;;;;;;11.57;87.83;96376.38;4986750;28;20196;-72
2022/11/09 01:05:58;;;;;;;7.93;7.17;;;;;;;11.60;88.21;96368.81;4978010;28;21805;-74
2022/11/09 01:08:24;;;;;;;7.67;7.17;;;;;;;11.46;88.72;96369.41;4984519;28;20626;-73
2022/11/09 01:10:50;;;;;;;8.03;7.53;;;;;;;11.46;88.90;96366.78;4956320;28;20192;-74
2022/11/09 01:13:17;;;;;;;10.03;9.30;;;;;;;11.35;89.91;96376.34;4986879;28;20177;-74
2022/11/09 01:15:51;;;;;;;10.67;9.97;;;;;;;11.40;89.46;96383.50;4954872;28;20189;-73
2022/11/09 01:18:19;;;;;;;12.90;12.00;;;;;;;11.46;89.56;96388.56;4973411;28;20633;-73
2022/11/09 01:20:46;;;;;;;12.13;11.23;;;;;;;11.39;90.02;96387.94;4972077;28;20195;-73
2022/11/09 01:23:13;;;;;;;11.87;10.97;;;;;;;11.39;89.85;96379.28;4990791;28;20184;-73
2022/11/09 01:25:38;;;;;;;11.57;10.67;;;;;;;11.33;90.25;96381.03;4991712;28;20537;-75
2022/11/09 01:28:05;;;;;;;10.50;9.60;;;;;;;11.30;90.64;96378.09;4979204;28;20236;-74
2022/11/09 01:30:35;;;;;;;11.77;10.87;;;;;;;11.28;90.61;96380.97;4994696;28;20180;-74
2022/11/09 01:33:03;;;;;;;11.60;10.80;;;;;;;11.30;90.98;96380.72;4976041;28;20203;-74
2022/11/09 01:35:29;;;;;;;12.80;11.90;;;;;;;11.39;89.73;96381.91;4976055;28;20188;-74
2022/11/09 01:37:54;;;;;;;12.00;11.20;;;;;;;11.52;88.37;96377.09;4975928;28;20688;-74
2022/11/09 01:40:19;;;;;;;12.70;11.37;;;;;;;11.61;87.89;96380.09;4993506;28;20188;-73
2022/11/09 01:42:45;;;;;;;12.00;11.13;;;;;;;11.58;87.38;96375.34;4978727;28;20653;-74
2022/11/09 01:45:16;;;;;;;10.03;9.27;;;;;;;11.58;87.60;96381.41;4994476;28;20303;-73
2022/11/09 01:47:43;;;;;;;11.63;10.87;;;;;;;11.63;86.95;96365.72;4994817;28;20184;-73
2022/11/09 01:50:11;;;;;;;8.93;8.20;;;;;;;11.70;86.74;96364.75;4978477;28;20283;-74
2022/11/09 01:52:42;;;;;;;9.47;8.87;;;;;;;11.67;86.34;96361.56;4975315;28;20288;-73
2022/11/09 01:55:17;;;;;;;9.17;8.47;;;;;;;11.63;86.46;96364.91;4978126;28;20180;-72
2022/11/09 01:58:04;;;;;;;10.43;9.77;;;;;;;11.61;86.79;96357.28;4994646;28;20651;-72
2022/11/09 02:00:32;;;;;;;9.43;8.63;;;;;;;11.60;86.87;96355.69;4976026;28;20189;-74
2022/11/09 02:03:04;;;;;;;9.60;8.67;;;;;;;11.71;86.13;96358.44;4991663;28;20373;-73
2022/11/09 02:05:32;;;;;;;9.20;8.63;;;;;;;11.72;86.08;96358.19;4994293;28;20176;-72
2022/11/09 02:08:00;;;;;;;9.30;8.67;;;;;;;11.78;85.73;96362.50;4976870;28;20375;-72
2022/11/09 02:10:49;;;;;;;10.13;9.37;;;;;;;11.86;84.72;96362.09;4992115;28;20207;-73
2022/11/09 02:13:18;;;;;;;8.73;8.13;;;;;;;11.92;84.38;96369.00;4989800;28;20286;-73
2022/11/09 02:15:43;;;;;;;8.87;8.30;;;;;;;11.91;84.31;96377.09;4994241;28;20236;-73
2022/11/09 02:18:09;;;;;;;11.43;10.73;;;;;;;11.98;84.10;96364.59;4993418;28;20207;-73
2022/11/09 02:20:53;;;;;;;11.50;10.73;;;;;;;11.98;83.93;96367.97;4974768;28;20605;-73
2022/11/09 02:23:19;;;;;;;9.10;8.50;;;;;;;11.94;84.20;96361.63;4978158;28;20183;-73
2022/11/09 02:25:52;;;;;;;10.13;9.50;;;;;;;11.99;84.10;96363.53;4993164;28;20668;-73
2022/11/09 02:28:18;;;;;;;9.63;9.03;;;;;;;12.02;84.03;96361.22;4976214;28;20258;-72
2022/11/09 02:30:47;;;;;;;11.73;11.13;;;;;;;11.89;85.12;96358.16;4988317;28;20240;-72
2022/11/09 02:33:13;;;;;;;12.23;11.43;;;;;;;11.99;84.70;96361.69;4984074;28;20240;-73
2022/11/09 02:35:38;;;;;;;16.27;15.07;;;;;;;11.99;84.67;96358.28;4981594;28;20185;-73
2022/11/09 02:38:08;;;;;;;20.83;19.47;;;;;;;12.00;84.40;96365.13;4988873;28;20200;-73
2022/11/09 02:40:37;;;;;;;20.83;19.63;;;;;;;12.08;83.64;96360.25;4959339;28;20268;-73
2022/11/09 02:43:05;;;;;;;22.97;21.70;;;;;;;12.06;83.80;96369.41;4964520;28;20577;-74
2022/11/09 02:45:30;;;;;;;20.83;19.47;;;;;;;12.05;83.67;96371.22;4976167;28;20192;-73
2022/11/09 02:47:56;;;;;;;15.53;14.57;;;;;;;12.15;83.43;96375.78;4986583;28;20280;-74
2022/11/09 02:50:21;;;;;;;12.17;11.40;;;;;;;12.14;83.29;96370.81;4974920;28;20185;-73
2022/11/09 02:52:47;;;;;;;18.70;17.53;;;;;;;12.21;82.92;96374.00;4979311;28;20188;-74
2022/11/09 02:55:12;;;;;;;5.90;5.50;;;;;;;12.30;82.24;96370.72;4989253;28;20274;-73
2022/11/09 02:57:37;;;;;;;7.43;6.20;;;;;;;12.26;82.31;96380.13;4985692;28;20202;-73
2022/11/09 03:00:04;;;;;;;10.67;9.87;;;;;;;12.31;81.45;96380.19;4975837;28;20322;-73
2022/11/09 03:02:30;;;;;;;12.30;11.60;;;;;;;12.31;81.82;96393.34;4981797;28;20201;-72
2022/11/09 03:04:56;;;;;;;14.17;13.33;;;;;;;12.33;81.73;96396.50;4978915;28;20334;-73
2022/11/09 03:07:21;;;;;;;20.67;13.50;;;;;;;12.36;81.73;96396.00;4991488;28;20180;-74
2022/11/09 03:09:46;;;;;;;9.13;8.43;;;;;;;12.32;82.37;96402.78;4972802;28;20188;-73
2022/11/09 03:12:29;;;;;;;6.27;5.87;;;;;;;12.26;83.14;96408.25;4983494;28;20185;-73
2022/11/09 03:15:00;;;;;;;5.50;5.00;;;;;;;12.31;83.35;96416.19;4981453;28;20187;-73
2022/11/09 03:17:26;;;;;;;8.30;7.70;;;;;;;12.34;83.67;96413.06;4992509;28;20571;-73
2022/11/09 03:19:52;;;;;;;13.30;12.47;;;;;;;12.20;84.33;96407.41;4975376;28;20177;-73
2022/11/09 03:22:18;;;;;;;17.50;16.53;;;;;;;12.07;86.19;96410.38;4983593;28;20192;-73
2022/11/09 03:24:43;;;;;;;7.03;6.63;;;;;;;11.95;89.72;96418.38;4989997;28;20244;-73
2022/11/09 03:27:09;;;;;;;5.77;5.33;;;;;;;11.86;91.29;96421.69;4981377;28;20317;-74
2022/11/09 03:29:34;;;;;;;9.90;9.30;;;;;;;11.85;95.79;96417.47;4975663;28;20275;-73
2022/11/09 03:31:59;;;;;;;12.80;12.10;;;;;;;11.65;96.94;96412.69;4962945;28;20192;-73
2022/11/09 03:34:25;;;;;;;6.30;5.80;;;;;;;11.53;100.00;96412.03;4992360;28;20191;-73
2022/11/09 03:36:50;;;;;;;6.93;6.33;;;;;;;11.43;100.00;96411.84;4974689;28;20291;-73
2022/11/09 03:39:16;;;;;;;8.87;8.17;;;;;;;11.24;100.00;96421.84;4990017;28;20192;-73
2022/11/09 03:41:41;;;;;;;12.53;11.57;;;;;;;11.20;100.00;96425.97;4973907;28;20271;-73
2022/11/09 03:44:06;;;;;;;11.67;10.87;;;;;;;11.08;100.00;96426.06;4994018;28;20283;-73
2022/11/09 03:46:31;;;;;;;16.77;15.80;;;;;;;11.00;100.00;96423.00;4994069;28;20207;-72
2022/11/09 03:48:57;;;;;;;13.93;12.93;;;;;;;10.92;100.00;96432.09;4993853;28;20192;-72
2022/11/09 03:51:22;;;;;;;8.60;8.03;;;;;;;10.83;100.00;96429.03;4979049;28;20239;-71
2022/11/09 03:53:48;;;;;;;7.83;7.23;;;;;;;10.74;100.00;96427.84;4992904;28;20180;-71
2022/11/09 03:56:13;;;;;;;9.13;8.27;;;;;;;10.70;100.00;96421.47;4987737;28;20180;-71
2022/11/09 03:58:38;;;;;;;10.30;9.60;;;;;;;10.70;100.00;96425.94;4983707;28;20188;-70
2022/11/09 04:01:04;;;;;;;14.13;12.83;;;;;;;10.70;100.00;96425.94;4994130;28;20520;-69
2022/11/09 04:03:29;;;;;;;11.57;10.57;;;;;;;10.75;100.00;96423.41;4993491;28;20589;-71
2022/11/09 04:05:57;;;;;;;16.67;15.73;;;;;;;10.78;100.00;96425.53;4990126;28;20193;-70
2022/11/09 04:08:22;;;;;;;19.80;18.70;;;;;;;10.77;100.00;96424.72;4974437;28;20193;-70
2022/11/09 04:10:48;;;;;;;15.47;14.47;;;;;;;10.74;100.00;96425.22;4972383;28;20192;-70
2022/11/09 04:13:13;;;;;;;13.10;12.20;;;;;;;10.68;100.00;96425.38;4974302;28;20184;-70
2022/11/09 04:15:38;;;;;;;15.57;14.40;;;;;;;10.79;100.00;96433.16;4975090;28;20181;-70
2022/11/09 04:18:03;;;;;;;13.60;12.70;;;;;;;10.66;100.00;96440.53;4993460;28;20210;-70
2022/11/09 04:20:30;;;;;;;13.40;12.60;;;;;;;10.70;100.00;96439.03;4986169;28;20177;-70
2022/11/09 04:23:01;;;;;;;14.57;13.23;;;;;;;10.65;100.00;96442.34;4974145;28;20180;-71
2022/11/09 04:25:30;;;;;;;13.20;12.07;;;;;;;10.53;100.00;96441.63;4973588;28;20207;-70
2022/11/09 04:27:56;;;;;;;14.63;13.63;;;;;;;10.56;100.00;96450.81;4973698;28;20240;-71
2022/11/09 04:30:23;;;;;;;13.97;13.07;;;;;;;10.53;100.00;96452.09;4975088;28;20194;-71
2022/11/09 04:32:48;;;;;;;9.60;8.00;;;;;;;10.57;100.00;96457.66;4973603;28;20589;-71
2022/11/09 04:35:13;;;;;;;8.20;7.57;;;;;;;10.41;100.00;96462.63;4974027;28;20239;-71
2022/11/09 04:37:39;;;;;;;8.17;7.57;;;;;;;10.38;100.00;96449.97;4973565;28;20208;-72
2022/11/09 04:40:05;;;;;;;9.17;8.33;;;;;;;10.33;100.00;96455.13;4976621;28;20303;-70
2022/11/09 04:42:30;;;;;;;9.77;8.97;;;;;;;10.20;100.00;96451.97;4993152;28;20270;-70
2022/11/09 04:44:56;;;;;;;10.17;9.43;;;;;;;10.31;100.00;96456.38;4983098;28;20181;-69
2022/11/09 04:47:21;;;;;;;9.53;8.73;;;;;;;10.36;100.00;96452.06;4956610;28;20204;-69
2022/11/09 04:49:46;;;;;;;9.57;8.87;;;;;;;10.23;100.00;96448.88;4973994;28;20196;-69
2022/11/09 04:52:11;;;;;;;10.33;9.53;;;;;;;10.21;100.00;96449.13;4975718;28;20587;-70
2022/11/09 04:54:37;;;;;;;9.17;8.33;;;;;;;10.13;100.00;96440.81;4978910;28;20596;-70
2022/11/09 04:57:02;;;;;;;8.33;7.63;;;;;;;10.12;100.00;96437.38;4975222;28;20550;-70
2022/11/09 04:59:27;;;;;;;8.53;7.93;;;;;;;10.00;100.00;96437.41;4992764;28;20192;-70
2022/11/09 05:01:53;;;;;;;9.97;9.17;;;;;;;10.05;100.00;96438.53;4975974;28;20223;-70
2022/11/09 05:04:18;;;;;;;11.90;9.63;;;;;;;10.01;100.00;96423.31;4973774;28;20259;-70
2022/11/09 05:06:43;;;;;;;10.10;9.30;;;;;;;10.06;100.00;96413.94;4973704;28;20189;-68
2022/11/09 05:09:09;;;;;;;12.07;11.17;;;;;;;10.07;100.00;96411.09;4981641;28;20589;-69
2022/11/09 05:11:35;;;;;;;12.50;11.40;;;;;;;10.01;100.00;96404.19;4992002;28;20188;-69
2022/11/09 05:14:01;;;;;;;13.33;12.27;;;;;;;10.02;100.00;96401.34;4992676;28;20262;-72
2022/11/09 05:16:28;;;;;;;12.17;11.27;;;;;;;10.07;100.00;96405.88;4992733;28;20692;-69
2022/11/09 05:18:53;;;;;;;11.20;10.30;;;;;;;9.97;100.00;96410.91;4990387;28;20605;-69
2022/11/09 05:21:19;;;;;;;10.47;9.57;;;;;;;9.97;100.00;96435.25;4975031;28;20279;-70
2022/11/09 05:24:01;;;;;;;11.30;10.20;;;;;;;9.94;100.00;96430.47;4974644;28;20250;-70
2022/11/09 05:26:31;;;;;;;9.73;8.83;;;;;;;9.99;100.00;96443.66;4974863;28;20192;-70
2022/11/09 05:28:58;;;;;;;12.07;10.03;;;;;;;9.96;100.00;96431.06;4941586;29;20223;-69
2022/11/09 05:31:24;;;;;;;9.90;9.00;;;;;;;9.98;100.00;96423.75;4953920;28;20555;-69
2022/11/09 05:33:50;;;;;;;11.07;9.83;;;;;;;10.04;100.00;96411.56;4953326;28;20235;-69
2022/11/09 05:36:17;;;;;;;9.90;9.00;;;;;;;9.93;100.00;96399.28;4952041;29;20256;-70
2022/11/09 05:38:42;;;;;;;10.77;9.80;;;;;;;9.87;100.00;96395.78;4948141;28;20182;-70
2022/11/09 05:41:07;;;;;;;11.27;10.37;;;;;;;9.82;100.00;96402.72;4934959;29;20194;-70
2022/11/09 05:43:33;;;;;;;12.40;11.30;;;;;;;9.80;100.00;96404.81;4946928;29;20193;-70
2022/11/09 05:45:58;;;;;;;12.57;11.63;;;;;;;9.75;100.00;96394.22;4954052;28;20244;-70
2022/11/09 05:48:23;;;;;;;14.10;12.93;;;;;;;9.79;100.00;96403.22;4950562;28;20268;-69
2022/11/09 05:50:49;;;;;;;14.47;13.17;;;;;;;9.76;100.00;96406.25;4938777;29;20272;-69
2022/11/09 05:53:14;;;;;;;14.33;13.17;;;;;;;9.83;100.00;96396.47;4934732;29;20216;-70
2022/11/09 05:55:39;;;;;;;14.47;13.37;;;;;;;9.76;100.00;96393.19;4934755;29;20285;-69
2022/11/09 05:58:05;;;;;;;16.60;15.30;;;;;;;9.68;100.00;96396.16;4934539;29;20218;-69
2022/11/09 06:00:30;;;;;;;16.23;14.87;;;;;;;9.67;100.00;96398.00;4935770;29;20303;-69
2022/11/09 06:03:07;;;;;;;14.83;13.80;;;;;;;9.72;100.00;96394.69;4948756;29;20215;-69
2022/11/09 06:05:34;;;;;;;16.33;15.07;;;;;;;9.70;100.00;96405.38;4935079;29;20217;-69
2022/11/09 06:08:11;;;;;;;15.67;14.37;;;;;;;9.60;100.00;96411.19;4934530;29;20249;-69
2022/11/09 06:10:38;;;;;;;14.57;13.47;;;;;;;9.70;100.00;96401.94;4943476;29;20213;-69
2022/11/09 06:13:03;;;;;;;14.33;13.13;;;;;;;9.71;100.00;96414.00;4936937;29;20216;-69
2022/11/09 06:15:29;;;;;;;13.37;12.27;;;;;;;9.61;100.00;96409.38;4950440;28;20704;-70
2022/11/09 06:17:56;;;;;;;14.57;13.40;;;;;;;9.75;100.00;96420.41;4937333;29;20206;-69
2022/11/09 06:20:21;;;;;;;12.90;11.60;;;;;;;9.73;100.00;96420.63;4937481;29;20209;-69
2022/11/09 06:22:57;;;;;;;13.57;12.37;;;;;;;9.89;100.00;96424.34;4938524;29;20193;-69
2022/11/09 06:25:24;;;;;;;12.83;11.70;;;;;;;9.79;100.00;96430.19;4937221;29;20189;-70
2022/11/09 06:27:52;;;;;;;12.93;11.83;;;;;;;9.77;100.00;96434.84;4967617;28;20242;-70
2022/11/09 06:30:17;;;;;;;11.53;10.53;;;;;;;9.85;100.00;96433.69;4995210;28;20199;-71
2022/11/09 06:32:42;;;;;;;10.20;9.40;;;;;;;9.89;100.00;96435.63;4993097;28;20700;-70
2022/11/09 06:35:08;;;;;;;10.67;9.73;;;;;;;9.97;100.00;96435.25;4994566;28;20569;-70
2022/11/09 06:37:33;;;;;;;10.00;9.13;;;;;;;9.91;100.00;96446.66;4983725;28;20284;-70
2022/11/09 06:39:59;;;;;;;11.17;9.97;;;;;;;10.00;100.00;96445.28;4990234;28;20668;-70
2022/11/09 06:42:24;;;;;;;10.63;9.63;;;;;;;10.05;100.00;96446.41;4992268;28;20641;-70
2022/11/09 06:44:49;;;;;;;9.67;8.67;;;;;;;9.95;100.00;96454.84;4961766;28;20185;-70
2022/11/09 06:47:15;;;;;;;10.17;9.37;;;;;;;10.07;100.00;96458.25;4976081;28;20200;-70
2022/11/09 06:49:40;;;;;;;10.33;9.33;;;;;;;10.11;100.00;96456.75;4987395;28;20231;-70
2022/11/09 06:52:05;;;;;;;11.57;9.70;;;;;;;10.07;100.00;96453.00;4993517;28;20645;-70
2022/11/09 06:54:31;;;;;;;10.20;9.30;;;;;;;10.19;100.00;96461.66;4994486;28;20203;-70
2022/11/09 06:56:57;;;;;;;14.10;10.33;;;;;;;10.10;100.00;96468.25;4994884;28;20204;-71
2022/11/09 06:59:22;;;;;;;10.47;9.37;;;;;;;10.19;100.00;96471.34;4987913;28;20189;-71
2022/11/09 07:01:47;;;;;;;11.37;10.17;;;;;;;10.24;100.00;96464.38;4985561;28;20180;-71
2022/11/09 07:04:13;;;;;;;11.87;10.73;;;;;;;10.31;100.00;96464.22;4994697;28;20184;-71
2022/11/09 07:06:39;;;;;;;10.53;8.87;;;;;;;10.26;100.00;96458.88;4960970;28;20193;-73
2022/11/09 07:09:05;;;;;;;9.90;9.07;;;;;;;10.23;100.00;96473.25;4974509;28;20261;-71
2022/11/09 07:11:30;;;;;;;9.23;8.40;;;;;;;10.36;100.00;96475.63;4975635;28;20630;-71
2022/11/09 07:13:55;;;;;;;9.37;8.53;;;;;;;10.39;100.00;96477.78;4975228;28;20196;-71
2022/11/09 07:16:21;;;;;;;8.20;7.53;;;;;;;10.36;100.00;96488.72;4975232;28;20205;-72
2022/11/09 07:18:46;;;;;;;8.93;8.03;;;;;;;10.45;100.00;96483.09;4980131;28;20194;-75
2022/11/09 07:21:12;;;;;;;8.73;8.13;;;;;;;10.42;100.00;96481.75;4985318;28;20275;-72
2022/11/09 07:23:37;;;;;;;8.77;7.87;;;;;;;10.45;100.00;96491.75;4974088;28;20638;-72
2022/11/09 07:26:03;;;;;;;8.70;8.10;;;;;;;10.38;100.00;96509.44;4975009;28;20193;-72
2022/11/09 07:28:29;;;;;;;8.17;7.57;;;;;;;10.35;100.00;96552.63;4974177;28;20705;-72
2022/11/09 07:30:56;;;;;;;8.50;7.83;;;;;;;10.25;100.00;96556.84;4963286;28;20549;-70
2022/11/09 07:33:22;;;;;;;8.80;8.20;;;;;;;10.11;100.00;96551.00;4983025;28;20564;-72
2022/11/09 07:35:47;;;;;;;9.17;8.50;;;;;;;10.19;100.00;96563.81;4980878;28;20191;-71
2022/11/09 07:38:14;;;;;;;9.33;8.43;;;;;;;10.33;100.00;96567.75;4961959;28;20679;-75
2022/11/09 07:40:40;;;;;;;10.33;9.33;;;;;;;10.87;100.00;96563.06;4977413;28;20195;-73
2022/11/09 07:43:06;;;;;;;10.60;9.83;;;;;;;10.74;100.00;96561.53;4974785;28;20185;-73
2022/11/09 07:45:33;;;;;;;7.77;7.27;;;;;;;10.68;100.00;96556.41;4972976;28;20193;-72
2022/11/09 07:48:00;;;;;;;9.23;8.43;;;;;;;10.64;100.00;96537.75;4990197;28;20189;-74
2022/11/09 07:50:28;;;;;;;9.10;8.50;;;;;;;10.73;100.00;96527.69;4984449;28;20669;-73
2022/11/09 07:52:58;;;;;;;8.20;7.70;;;;;;;10.81;100.00;96527.31;4984256;28;20226;-73
2022/11/09 07:55:24;;;;;;;9.87;9.20;;;;;;;10.86;100.00;96526.63;4975847;28;20196;-72
2022/11/09 07:58:03;;;;;;;10.20;9.30;;;;;;;10.99;100.00;96531.56;4973874;28;20261;-73
2022/11/09 08:00:30;;;;;;;11.23;10.33;;;;;;;10.98;100.00;96527.38;4974110;28;21705;-73
2022/11/09 08:02:56;;;;;;;12.00;11.17;;;;;;;11.02;100.00;96531.09;4974173;28;20195;-75
2022/11/09 08:05:22;;;;;;;12.07;11.27;;;;;;;11.05;100.00;96531.41;4956934;28;20192;-73
2022/11/09 08:07:47;;;;;;;13.03;12.13;;;;;;;11.04;100.00;96539.50;4974348;28;20189;-73
2022/11/09 08:10:13;;;;;;;11.63;10.93;;;;;;;11.08;100.00;96545.91;4973210;28;20181;-73
2022/11/09 08:12:38;;;;;;;14.10;12.90;;;;;;;11.04;100.00;96547.38;4973882;28;20318;-73
2022/11/09 08:15:05;;;;;;;12.33;11.33;;;;;;;10.96;100.00;96545.94;4974175;28;20188;-72
2022/11/09 08:17:31;;;;;;;13.83;12.93;;;;;;;10.97;100.00;96549.38;4973846;28;20258;-72
2022/11/09 08:19:56;;;;;;;16.90;15.80;;;;;;;10.96;100.00;96555.63;4973786;28;20188;-72
2022/11/09 08:22:21;;;;;;;18.23;16.83;;;;;;;10.95;100.00;96548.78;4973970;28;20571;-72
2022/11/09 08:24:47;;;;;;;16.10;14.97;;;;;;;11.01;100.00;96547.88;4977800;28;20306;-73
2022/11/09 08:27:12;;;;;;;18.70;17.30;;;;;;;10.96;100.00;96547.78;4991280;28;20231;-73
2022/11/09 08:29:38;;;;;;;14.43;13.40;;;;;;;10.95;100.00;96546.97;4966980;28;20242;-73
2022/11/09 08:32:03;;;;;;;12.40;11.60;;;;;;;11.00;100.00;96541.81;4989434;28;20188;-73
2022/11/09 08:34:28;;;;;;;12.93;12.13;;;;;;;11.08;100.00;96548.53;4986540;28;20199;-73
2022/11/09 08:36:54;;;;;;;13.80;12.70;;;;;;;11.06;100.00;96545.31;4975224;28;20204;-72
2022/11/09 08:39:21;;;;;;;13.07;11.97;;;;;;;11.10;100.00;96542.00;4991586;28;20271;-73
2022/11/09 08:41:47;;;;;;;12.67;11.33;;;;;;;11.19;100.00;96543.22;4979020;28;20344;-73
2022/11/09 08:44:12;;;;;;;13.93;12.83;;;;;;;11.23;100.00;96552.19;4967328;28;20515;-73
2022/11/09 08:46:38;;;;;;;15.17;13.80;;;;;;;11.19;100.00;96561.59;4989986;28;20187;-73
2022/11/09 08:49:03;;;;;;;14.20;12.87;;;;;;;11.22;100.00;96558.47;4992225;28;20707;-73
2022/11/09 08:51:28;;;;;;;14.70;13.47;;;;;;;11.25;100.00;96558.03;4985650;28;20182;-72
2022/11/09 08:53:54;;;;;;;14.57;13.40;;;;;;;11.22;100.00;96553.22;4985028;28;20207;-75
2022/11/09 08:56:19;;;;;;;14.90;13.70;;;;;;;11.35;100.00;96548.72;4991098;28;20184;-73
2022/11/09 08:58:45;;;;;;;13.77;12.77;;;;;;;11.30;100.00;96546.81;4987017;28;20210;-72
2022/11/09 09:01:11;;;;;;;14.00;12.93;;;;;;;11.24;100.00;96555.63;4988732;28;20191;-72
2022/11/09 09:03:36;;;;;;;13.80;12.90;;;;;;;11.37;100.00;96551.91;4965492;28;20219;-72
2022/11/09 09:06:06;;;;;;;13.33;12.23;;;;;;;11.51;100.00;96554.00;4979218;28;20204;-71
2022/11/09 09:08:32;;;;;;;14.30;13.20;;;;;;;11.53;100.00;96548.50;4957511;28;20194;-71
2022/11/09 09:11:01;;;;;;;13.03;11.80;;;;;;;11.45;100.00;96547.06;4966594;28;20192;-72
2022/11/09 09:13:26;;;;;;;10.80;10.03;;;;;;;11.52;100.00;96547.72;4990007;28;20675;-71
2022/11/09 09:15:52;;;;;;;9.13;8.33;;;;;;;11.48;100.00;96541.31;4988319;28;20282;-76
2022/11/09 09:18:17;;;;;;;9.00;8.20;;;;;;;11.47;100.00;96541.59;4991267;28;20196;-77
2022/11/09 09:20:42;;;;;;;9.30;8.70;;;;;;;11.45;100.00;96541.81;4979483;28;20189;-68
2022/11/09 09:23:08;;;;;;;7.33;6.83;;;;;;;11.35;100.00;96543.47;4972514;28;20287;-72
2022/11/09 09:25:33;;;;;;;7.83;7.23;;;;;;;11.38;100.00;96543.00;4972445;28;20197;-72
2022/11/09 09:27:58;;;;;;;7.00;6.40;;;;;;;11.37;100.00;96551.91;4972300;28;20588;-69
2022/11/09 09:30:24;;;;;;;7.83;7.33;;;;;;;11.52;100.00;96565.28;4976595;28;20185;-71
2022/11/09 09:32:49;;;;;;;9.33;8.10;;;;;;;11.54;100.00;96563.19;4992167;28;20180;-69
2022/11/09 09:35:15;;;;;;;8.03;7.33;;;;;;;11.48;100.00;96561.56;4974708;28;20494;-68
2022/11/09 09:37:42;;;;;;;8.73;8.03;;;;;;;11.51;100.00;96563.69;4989853;28;20671;-68
2022/11/09 09:40:22;;;;;;;7.97;7.47;;;;;;;11.55;100.00;96562.97;4992063;28;20188;-68
2022/11/09 09:42:50;;;;;;;7.90;7.20;;;;;;;11.61;100.00;96562.03;4978573;28;20262;-76
2022/11/09 09:45:26;;;;;;;7.00;6.60;;;;;;;11.77;100.00;96559.66;4976684;28;20638;-72
2022/11/09 09:48:35;;;;;;;373.83;253.20;;;;;;;11.78;100.00;96551.56;4990485;28;20173;-76
2022/11/09 09:51:21;;;;;;;6.73;6.13;;;;;;;11.80;100.00;96565.25;4991126;28;20204;-75
2022/11/09 09:53:58;;;;;;;6.20;5.80;;;;;;;11.69;100.00;96560.84;4981411;28;20196;-70
2022/11/09 09:56:29;;;;;;;6.63;5.73;;;;;;;11.83;100.00;96559.50;4987138;28;20200;-73
2022/11/09 09:59:10;;;;;;;6.30;5.80;;;;;;;12.13;100.00;96561.78;4977654;28;20526;-71
2022/11/09 10:01:39;;;;;;;7.93;7.43;;;;;;;12.17;100.00;96567.34;4993813;28;20252;-73
2022/11/09 10:04:13;;;;;;;13.77;12.97;;;;;;;12.21;100.00;96564.00;4994274;28;20188;-72
2022/11/09 10:06:47;;;;;;;49.63;46.73;;;;;;;12.26;100.00;96568.53;4987749;28;20188;-70
2022/11/09 10:09:24;;;;;;;16.90;8.37;;;;;;;12.20;100.00;96566.88;4985292;28;20673;-75
2022/11/09 10:12:20;;;;;;;15.90;9.33;;;;;;;12.27;100.00;96568.28;4990396;28;20177;-73
2022/11/09 10:14:48;;;;;;;99.50;89.77;;;;;;;12.29;100.00;96562.78;4964669;28;20211;-71
2022/11/09 10:17:55;;;;;;;221.17;204.27;;;;;;;12.33;100.00;96566.50;4967130;28;20216;-72
2022/11/09 10:21:02;;;;;;;138.67;127.13;;;;;;;12.48;100.00;96554.38;4982770;28;20751;-76
2022/11/09 10:23:43;;;;;;;12.37;11.57;;;;;;;12.45;100.00;96554.06;4993138;28;20208;-74
2022/11/09 10:26:26;;;;;;;14.00;13.20;;;;;;;12.43;100.00;96554.31;4993250;28;20219;-68
2022/11/09 10:29:00;;;;;;;15.40;14.23;;;;;;;12.50;100.00;96552.28;4977517;28;20323;-74
2022/11/09 10:31:31;;;;;;;12.23;11.03;;;;;;;12.68;100.00;96551.19;4979460;28;20179;-75
2022/11/09 10:34:01;;;;;;;15.10;13.57;;;;;;;12.77;100.00;96546.28;4990592;28;20186;-75
2022/11/09 10:36:32;;;;;;;15.67;11.00;;;;;;;12.75;100.00;96538.66;4977526;28;20185;-74
2022/11/09 10:39:00;;;;;;;12.50;11.00;;;;;;;12.88;100.00;96532.22;4982392;28;20210;-75
2022/11/09 10:41:46;;;;;;;17.33;16.00;;;;;;;13.07;100.00;96528.22;4978361;28;20236;-77
2022/11/09 10:44:16;;;;;;;36.33;14.70;;;;;;;13.19;100.00;96528.09;4987753;28;20207;-74
2022/11/09 10:47:04;;;;;;;11.07;10.33;;;;;;;13.41;100.00;96530.66;4968254;28;20656;-72
2022/11/09 10:49:30;;;;;;;9.17;8.57;;;;;;;13.35;100.00;96527.19;4992370;28;20562;-75
2022/11/09 10:51:55;;;;;;;16.70;15.67;;;;;;;13.27;100.00;96525.00;4977305;28;20199;-74
2022/11/09 10:54:25;;;;;;;24.03;22.27;;;;;;;13.39;100.00;96524.84;4985050;28;20189;-77
2022/11/09 10:57:00;;;;;;;26.27;24.77;;;;;;;13.47;100.00;96514.66;4975598;28;20557;-75
2022/11/09 10:59:44;;;;;;;126.80;119.57;;;;;;;13.53;100.00;96518.94;4974483;28;20176;-74
2022/11/09 11:02:24;;;;;;;455.20;289.90;;;;;;;13.37;100.00;96519.06;4947619;28;20207;-75
2022/11/09 11:04:51;;;;;;;26.87;24.87;;;;;;;13.56;100.00;96517.63;4984773;28;20607;-74
2022/11/09 11:07:21;;;;;;;19.80;18.50;;;;;;;13.41;100.00;96518.28;4977619;28;20193;-78
2022/11/09 11:09:46;;;;;;;18.07;16.83;;;;;;;13.64;100.00;96523.22;4974154;28;20313;-77
2022/11/09 11:12:16;;;;;;;24.27;22.80;;;;;;;13.62;100.00;96516.59;4976058;28;20251;-75
2022/11/09 11:14:43;;;;;;;18.70;17.60;;;;;;;13.63;100.00;96518.19;4981163;28;20224;-76
2022/11/09 11:17:35;;;;;;;13.10;12.40;;;;;;;13.82;100.00;96516.75;4973667;28;20204;-72
2022/11/09 11:20:23;;;;;;;19.17;17.63;;;;;;;13.90;100.00;96516.28;4978934;28;20243;-72
2022/11/09 11:22:49;;;;;;;39.43;36.53;;;;;;;14.01;100.00;96520.56;4965052;28;20196;-67
2022/11/09 11:25:20;;;;;;;17.10;16.10;;;;;;;13.94;100.00;96512.09;4993612;28;20203;-72
2022/11/09 11:27:55;;;;;;;11.27;10.33;;;;;;;13.93;100.00;96510.50;4993102;28;20277;-75
2022/11/09 11:30:27;;;;;;;10.80;10.03;;;;;;;14.04;100.00;96498.97;4976245;28;20595;-75